sensor_id;sensor_type;location;lat;lon;timestamp;temperature;humidity
42099;DHT22;27758;55.900;8.516;2023-09-30T00:01:11;15.10;99.90
42099;DHT22;27758;55.900;8.516;2023-09-30T00:03:37;15.10;99.90
42099;DHT22;27758;55.900;8.516;2023-09-30T00:06:03;15.10;99.90
42099;DHT22;27758;55.900;8.516;2023-09-30T00:08:29;15.10;99.90
42099;DHT22;27758;55.900;8.516;2023-09-30T00:10:55;15.10;99.90
42099;DHT22;27758;55.900;8.516;2023-09-30T00:13:21;15.10;99.90
42099;DHT22;27758;55.900;8.516;2023-09-30T00:15:47;15.10;99.90
42099;DHT22;27758;55.900;8.516;2023-09-30T00:18:13;15.10;99.90
42099;DHT22;27758;55.900;8.516;2023-09-30T00:20:39;15.10;99.90
42099;DHT22;27758;55.900;8.516;2023-09-30T00:23:05;15.10;99.90
42099;DHT22;27758;55.900;8.516;2023-09-30T00:25:33;15.10;99.90
42099;DHT22;27758;55.900;8.516;2023-09-30T00:27:59;15.10;99.90
42099;DHT22;27758;55.900;8.516;2023-09-30T00:30:24;15.20;99.90
42099;DHT22;27758;55.900;8.516;2023-09-30T00:32:50;15.20;99.90
42099;DHT22;27758;55.900;8.516;2023-09-30T00:35:16;15.20;99.90
42099;DHT22;27758;55.900;8.516;2023-09-30T00:37:42;15.20;99.90
42099;DHT22;27758;55.900;8.516;2023-09-30T00:40:08;15.10;99.90
42099;DHT22;27758;55.900;8.516;2023-09-30T00:42:38;15.20;99.90
42099;DHT22;27758;55.900;8.516;2023-09-30T00:45:04;15.20;99.90
42099;DHT22;27758;55.900;8.516;2023-09-30T00:47:31;15.20;99.90
42099;DHT22;27758;55.900;8.516;2023-09-30T00:49:57;15.20;99.90
42099;DHT22;27758;55.900;8.516;2023-09-30T00:52:23;15.10;99.90
42099;DHT22;27758;55.900;8.516;2023-09-30T00:54:49;15.10;99.90
42099;DHT22;27758;55.900;8.516;2023-09-30T00:57:17;15.20;99.90
42099;DHT22;27758;55.900;8.516;2023-09-30T00:59:47;15.20;99.90
42099;DHT22;27758;55.900;8.516;2023-09-30T01:02:13;15.20;99.90
42099;DHT22;27758;55.900;8.516;2023-09-30T01:04:41;15.20;99.90
42099;DHT22;27758;55.900;8.516;2023-09-30T01:07:07;15.30;99.90
42099;DHT22;27758;55.900;8.516;2023-09-30T01:09:34;15.30;99.90
42099;DHT22;27758;55.900;8.516;2023-09-30T01:12:02;15.30;99.90
42099;DHT22;27758;55.900;8.516;2023-09-30T01:14:30;15.30;99.90
42099;DHT22;27758;55.900;8.516;2023-09-30T01:16:56;15.20;99.90
42099;DHT22;27758;55.900;8.516;2023-09-30T01:19:22;15.10;99.90
42099;DHT22;27758;55.900;8.516;2023-09-30T01:21:54;15.10;99.90
42099;DHT22;27758;55.900;8.516;2023-09-30T01:24:22;15.00;99.90
42099;DHT22;27758;55.900;8.516;2023-09-30T01:26:48;14.90;99.90
42099;DHT22;27758;55.900;8.516;2023-09-30T01:29:14;14.80;99.90
42099;DHT22;27758;55.900;8.516;2023-09-30T01:31:39;14.80;99.90
42099;DHT22;27758;55.900;8.516;2023-09-30T01:34:05;14.70;99.90
42099;DHT22;27758;55.900;8.516;2023-09-30T01:36:31;14.70;99.90
42099;DHT22;27758;55.900;8.516;2023-09-30T01:38:57;14.60;99.90
42099;DHT22;27758;55.900;8.516;2023-09-30T01:41:23;14.60;99.90
42099;DHT22;27758;55.900;8.516;2023-09-30T01:43:49;14.60;99.90
42099;DHT22;27758;55.900;8.516;2023-09-30T01:46:15;14.70;99.90
42099;DHT22;27758;55.900;8.516;2023-09-30T01:48:41;14.80;99.90
42099;DHT22;27758;55.900;8.516;2023-09-30T01:51:06;14.80;99.90
42099;DHT22;27758;55.900;8.516;2023-09-30T01:53:32;14.90;99.90
42099;DHT22;27758;55.900;8.516;2023-09-30T01:55:58;14.90;99.90
42099;DHT22;27758;55.900;8.516;2023-09-30T01:58:25;14.80;99.90
42099;DHT22;27758;55.900;8.516;2023-09-30T02:00:53;15.00;99.90
42099;DHT22;27758;55.900;8.516;2023-09-30T02:03:19;15.00;99.90
42099;DHT22;27758;55.900;8.516;2023-09-30T02:05:45;15.00;99.90
42099;DHT22;27758;55.900;8.516;2023-09-30T02:08:11;15.00;99.90
42099;DHT22;27758;55.900;8.516;2023-09-30T02:10:39;14.90;99.90
42099;DHT22;27758;55.900;8.516;2023-09-30T02:13:04;14.90;99.90
42099;DHT22;27758;55.900;8.516;2023-09-30T02:15:32;14.90;99.90
42099;DHT22;27758;55.900;8.516;2023-09-30T02:17:57;15.00;99.90
42099;DHT22;27758;55.900;8.516;2023-09-30T02:20:23;15.00;99.90
42099;DHT22;27758;55.900;8.516;2023-09-30T02:22:51;15.00;99.90
42099;DHT22;27758;55.900;8.516;2023-09-30T02:25:17;15.00;99.90
42099;DHT22;27758;55.900;8.516;2023-09-30T02:27:43;15.00;99.90
42099;DHT22;27758;55.900;8.516;2023-09-30T02:30:11;15.10;99.90
42099;DHT22;27758;55.900;8.516;2023-09-30T02:32:42;15.10;99.90
42099;DHT22;27758;55.900;8.516;2023-09-30T02:35:08;15.10;99.90
42099;DHT22;27758;55.900;8.516;2023-09-30T02:37:37;15.20;99.90
42099;DHT22;27758;55.900;8.516;2023-09-30T02:40:04;15.20;99.90
42099;DHT22;27758;55.900;8.516;2023-09-30T02:42:31;15.10;99.90
42099;DHT22;27758;55.900;8.516;2023-09-30T02:44:59;15.10;99.90
42099;DHT22;27758;55.900;8.516;2023-09-30T02:47:26;15.10;99.90
42099;DHT22;27758;55.900;8.516;2023-09-30T02:49:52;15.10;99.90
42099;DHT22;27758;55.900;8.516;2023-09-30T02:52:17;15.10;99.90
42099;DHT22;27758;55.900;8.516;2023-09-30T02:54:43;15.10;99.90
42099;DHT22;27758;55.900;8.516;2023-09-30T02:57:09;15.10;99.90
42099;DHT22;27758;55.900;8.516;2023-09-30T02:59:35;15.10;99.90
42099;DHT22;27758;55.900;8.516;2023-09-30T03:02:01;15.00;99.90
42099;DHT22;27758;55.900;8.516;2023-09-30T03:04:28;15.00;99.90
42099;DHT22;27758;55.900;8.516;2023-09-30T03:06:54;14.90;99.90
42099;DHT22;27758;55.900;8.516;2023-09-30T03:09:22;14.80;99.90
42099;DHT22;27758;55.900;8.516;2023-09-30T03:11:48;14.80;99.90
42099;DHT22;27758;55.900;8.516;2023-09-30T03:14:13;14.80;99.90
42099;DHT22;27758;55.900;8.516;2023-09-30T03:16:40;14.90;99.90
42099;DHT22;27758;55.900;8.516;2023-09-30T03:19:07;14.80;99.90
42099;DHT22;27758;55.900;8.516;2023-09-30T03:21:34;14.90;99.90
42099;DHT22;27758;55.900;8.516;2023-09-30T03:24:04;14.80;99.90
42099;DHT22;27758;55.900;8.516;2023-09-30T03:26:30;14.80;99.90
42099;DHT22;27758;55.900;8.516;2023-09-30T03:28:56;14.80;99.90
42099;DHT22;27758;55.900;8.516;2023-09-30T03:31:22;14.70;99.90
42099;DHT22;27758;55.900;8.516;2023-09-30T03:33:49;14.80;99.90
42099;DHT22;27758;55.900;8.516;2023-09-30T03:36:16;14.80;99.90
42099;DHT22;27758;55.900;8.516;2023-09-30T03:38:44;14.80;99.90
42099;DHT22;27758;55.900;8.516;2023-09-30T03:41:10;14.80;99.90
42099;DHT22;27758;55.900;8.516;2023-09-30T03:43:39;14.80;99.90
42099;DHT22;27758;55.900;8.516;2023-09-30T03:46:07;14.80;99.90
42099;DHT22;27758;55.900;8.516;2023-09-30T03:48:33;14.80;99.90
42099;DHT22;27758;55.900;8.516;2023-09-30T03:51:13;14.80;99.90
42099;DHT22;27758;55.900;8.516;2023-09-30T03:53:44;14.80;99.90
42099;DHT22;27758;55.900;8.516;2023-09-30T03:56:11;14.90;99.90
42099;DHT22;27758;55.900;8.516;2023-09-30T03:58:38;14.90;99.90
42099;DHT22;27758;55.900;8.516;2023-09-30T04:01:04;14.90;99.90
42099;DHT22;27758;55.900;8.516;2023-09-30T04:03:30;14.90;99.90
42099;DHT22;27758;55.900;8.516;2023-09-30T04:05:59;14.90;99.90
42099;DHT22;27758;55.900;8.516;2023-09-30T04:08:24;14.90;99.90
42099;DHT22;27758;55.900;8.516;2023-09-30T04:10:50;14.80;99.90
42099;DHT22;27758;55.900;8.516;2023-09-30T04:13:16;14.70;99.90
42099;DHT22;27758;55.900;8.516;2023-09-30T04:15:43;14.70;99.90
42099;DHT22;27758;55.900;8.516;2023-09-30T04:18:10;14.80;99.90
42099;DHT22;27758;55.900;8.516;2023-09-30T04:20:37;14.70;99.90
42099;DHT22;27758;55.900;8.516;2023-09-30T04:23:06;14.70;99.90
42099;DHT22;27758;55.900;8.516;2023-09-30T04:25:32;14.70;99.90
42099;DHT22;27758;55.900;8.516;2023-09-30T04:27:58;14.60;99.90
42099;DHT22;27758;55.900;8.516;2023-09-30T04:30:23;14.60;99.90
42099;DHT22;27758;55.900;8.516;2023-09-30T04:32:49;14.60;99.90
42099;DHT22;27758;55.900;8.516;2023-09-30T04:35:15;14.60;99.90
42099;DHT22;27758;55.900;8.516;2023-09-30T04:37:40;14.60;99.90
42099;DHT22;27758;55.900;8.516;2023-09-30T04:40:09;14.50;99.90
42099;DHT22;27758;55.900;8.516;2023-09-30T04:42:45;14.50;99.90
42099;DHT22;27758;55.900;8.516;2023-09-30T04:45:12;14.50;99.90
42099;DHT22;27758;55.900;8.516;2023-09-30T04:47:39;14.50;99.90
42099;DHT22;27758;55.900;8.516;2023-09-30T04:50:08;14.50;99.90
42099;DHT22;27758;55.900;8.516;2023-09-30T04:52:37;14.60;99.90
42099;DHT22;27758;55.900;8.516;2023-09-30T04:55:04;14.60;99.90
42099;DHT22;27758;55.900;8.516;2023-09-30T04:57:30;14.60;99.90
42099;DHT22;27758;55.900;8.516;2023-09-30T05:00:00;14.60;99.90
42099;DHT22;27758;55.900;8.516;2023-09-30T05:02:27;14.60;99.90
42099;DHT22;27758;55.900;8.516;2023-09-30T05:04:53;14.60;99.90
42099;DHT22;27758;55.900;8.516;2023-09-30T05:07:20;14.60;99.90
42099;DHT22;27758;55.900;8.516;2023-09-30T05:09:49;14.60;99.90
42099;DHT22;27758;55.900;8.516;2023-09-30T05:12:14;14.50;99.90
42099;DHT22;27758;55.900;8.516;2023-09-30T05:14:41;14.50;99.90
42099;DHT22;27758;55.900;8.516;2023-09-30T05:17:08;14.50;99.90
42099;DHT22;27758;55.900;8.516;2023-09-30T05:19:33;14.50;99.90
42099;DHT22;27758;55.900;8.516;2023-09-30T05:21:59;14.60;99.90
42099;DHT22;27758;55.900;8.516;2023-09-30T05:24:29;14.60;99.90
42099;DHT22;27758;55.900;8.516;2023-09-30T05:26:55;14.60;99.90
42099;DHT22;27758;55.900;8.516;2023-09-30T05:29:21;14.60;99.90
42099;DHT22;27758;55.900;8.516;2023-09-30T05:31:47;14.60;99.90
42099;DHT22;27758;55.900;8.516;2023-09-30T05:34:13;14.60;99.90
42099;DHT22;27758;55.900;8.516;2023-09-30T05:36:39;14.60;99.90
42099;DHT22;27758;55.900;8.516;2023-09-30T05:39:05;14.60;99.90
42099;DHT22;27758;55.900;8.516;2023-09-30T05:41:31;14.60;99.90
42099;DHT22;27758;55.900;8.516;2023-09-30T05:43:57;14.70;99.90
42099;DHT22;27758;55.900;8.516;2023-09-30T05:46:25;14.70;99.90
42099;DHT22;27758;55.900;8.516;2023-09-30T05:48:50;14.70;99.90
42099;DHT22;27758;55.900;8.516;2023-09-30T05:51:16;14.70;99.90
42099;DHT22;27758;55.900;8.516;2023-09-30T05:53:44;14.80;99.90
42099;DHT22;27758;55.900;8.516;2023-09-30T05:56:10;14.70;99.90
42099;DHT22;27758;55.900;8.516;2023-09-30T05:58:37;14.80;99.90
42099;DHT22;27758;55.900;8.516;2023-09-30T06:01:08;14.70;99.90
42099;DHT22;27758;55.900;8.516;2023-09-30T06:03:36;14.70;99.90
42099;DHT22;27758;55.900;8.516;2023-09-30T06:06:11;14.70;99.90
42099;DHT22;27758;55.900;8.516;2023-09-30T06:08:38;14.70;99.90
42099;DHT22;27758;55.900;8.516;2023-09-30T06:11:04;14.60;99.90
42099;DHT22;27758;55.900;8.516;2023-09-30T06:13:29;14.70;99.90
42099;DHT22;27758;55.900;8.516;2023-09-30T06:15:58;14.80;99.90
42099;DHT22;27758;55.900;8.516;2023-09-30T06:18:23;14.80;99.90
42099;DHT22;27758;55.900;8.516;2023-09-30T06:20:49;14.90;99.90
42099;DHT22;27758;55.900;8.516;2023-09-30T06:23:16;14.90;99.90
42099;DHT22;27758;55.900;8.516;2023-09-30T06:25:42;15.00;99.90
42099;DHT22;27758;55.900;8.516;2023-09-30T06:28:08;15.10;99.90
42099;DHT22;27758;55.900;8.516;2023-09-30T06:30:35;15.10;99.90
42099;DHT22;27758;55.900;8.516;2023-09-30T06:33:01;15.20;99.90
42099;DHT22;27758;55.900;8.516;2023-09-30T06:35:28;15.30;99.90
42099;DHT22;27758;55.900;8.516;2023-09-30T06:37:55;15.40;99.90
42099;DHT22;27758;55.900;8.516;2023-09-30T06:40:21;15.50;99.90
42099;DHT22;27758;55.900;8.516;2023-09-30T06:42:47;15.70;99.90
42099;DHT22;27758;55.900;8.516;2023-09-30T06:45:13;15.70;99.90
42099;DHT22;27758;55.900;8.516;2023-09-30T06:47:40;15.70;99.90
42099;DHT22;27758;55.900;8.516;2023-09-30T06:50:13;15.80;99.90
42099;DHT22;27758;55.900;8.516;2023-09-30T06:52:43;15.80;99.90
42099;DHT22;27758;55.900;8.516;2023-09-30T06:55:11;15.90;99.90
42099;DHT22;27758;55.900;8.516;2023-09-30T06:57:39;16.00;99.90
42099;DHT22;27758;55.900;8.516;2023-09-30T07:00:12;15.90;99.90
42099;DHT22;27758;55.900;8.516;2023-09-30T07:02:39;15.90;99.90
42099;DHT22;27758;55.900;8.516;2023-09-30T07:05:11;15.80;99.90
42099;DHT22;27758;55.900;8.516;2023-09-30T07:07:38;15.70;99.90
42099;DHT22;27758;55.900;8.516;2023-09-30T07:10:06;15.70;99.90
42099;DHT22;27758;55.900;8.516;2023-09-30T07:12:32;15.90;99.90
42099;DHT22;27758;55.900;8.516;2023-09-30T07:15:01;16.10;99.90
42099;DHT22;27758;55.900;8.516;2023-09-30T07:17:28;16.30;99.90
42099;DHT22;27758;55.900;8.516;2023-09-30T07:19:53;16.50;99.90
42099;DHT22;27758;55.900;8.516;2023-09-30T07:22:19;16.40;99.90
42099;DHT22;27758;55.900;8.516;2023-09-30T07:24:45;16.30;99.90
42099;DHT22;27758;55.900;8.516;2023-09-30T07:27:10;16.20;99.90
42099;DHT22;27758;55.900;8.516;2023-09-30T07:29:36;16.40;99.90
42099;DHT22;27758;55.900;8.516;2023-09-30T07:32:02;16.60;99.90
42099;DHT22;27758;55.900;8.516;2023-09-30T07:34:28;16.70;99.90
42099;DHT22;27758;55.900;8.516;2023-09-30T07:36:54;16.60;99.90
42099;DHT22;27758;55.900;8.516;2023-09-30T07:39:20;16.40;99.90
42099;DHT22;27758;55.900;8.516;2023-09-30T07:41:46;16.20;99.90
42099;DHT22;27758;55.900;8.516;2023-09-30T07:44:12;16.20;99.90
42099;DHT22;27758;55.900;8.516;2023-09-30T07:46:38;16.10;99.90
42099;DHT22;27758;55.900;8.516;2023-09-30T07:49:03;16.10;99.90
42099;DHT22;27758;55.900;8.516;2023-09-30T07:51:30;16.00;99.90
42099;DHT22;27758;55.900;8.516;2023-09-30T07:53:56;16.20;99.90
42099;DHT22;27758;55.900;8.516;2023-09-30T07:56:22;16.50;99.90
42099;DHT22;27758;55.900;8.516;2023-09-30T07:58:49;16.80;99.90
42099;DHT22;27758;55.900;8.516;2023-09-30T08:01:15;17.20;99.90
42099;DHT22;27758;55.900;8.516;2023-09-30T08:03:41;17.40;99.90
42099;DHT22;27758;55.900;8.516;2023-09-30T08:06:09;17.60;99.90
42099;DHT22;27758;55.900;8.516;2023-09-30T08:08:36;17.80;99.90
42099;DHT22;27758;55.900;8.516;2023-09-30T08:11:02;17.90;99.90
42099;DHT22;27758;55.900;8.516;2023-09-30T08:13:27;18.10;99.90
42099;DHT22;27758;55.900;8.516;2023-09-30T08:15:55;18.20;99.90
42099;DHT22;27758;55.900;8.516;2023-09-30T08:18:21;18.20;99.90
42099;DHT22;27758;55.900;8.516;2023-09-30T08:20:47;18.30;99.90
42099;DHT22;27758;55.900;8.516;2023-09-30T08:23:13;18.50;99.90
42099;DHT22;27758;55.900;8.516;2023-09-30T08:25:38;18.70;99.90
42099;DHT22;27758;55.900;8.516;2023-09-30T08:28:05;18.50;99.90
42099;DHT22;27758;55.900;8.516;2023-09-30T08:30:32;18.10;99.90
42099;DHT22;27758;55.900;8.516;2023-09-30T08:32:58;17.60;99.90
42099;DHT22;27758;55.900;8.516;2023-09-30T08:35:24;17.30;99.90
42099;DHT22;27758;55.900;8.516;2023-09-30T08:37:50;17.00;99.90
42099;DHT22;27758;55.900;8.516;2023-09-30T08:40:23;16.80;99.90
42099;DHT22;27758;55.900;8.516;2023-09-30T08:42:52;16.80;99.90
42099;DHT22;27758;55.900;8.516;2023-09-30T08:45:18;16.90;99.90
42099;DHT22;27758;55.900;8.516;2023-09-30T08:47:45;17.40;99.90
42099;DHT22;27758;55.900;8.516;2023-09-30T08:50:16;17.70;99.90
42099;DHT22;27758;55.900;8.516;2023-09-30T08:52:43;18.10;99.90
42099;DHT22;27758;55.900;8.516;2023-09-30T08:55:12;18.40;99.90
42099;DHT22;27758;55.900;8.516;2023-09-30T08:57:41;18.60;99.90
42099;DHT22;27758;55.900;8.516;2023-09-30T09:00:09;18.90;99.90
42099;DHT22;27758;55.900;8.516;2023-09-30T09:02:42;19.10;99.90
42099;DHT22;27758;55.900;8.516;2023-09-30T09:05:08;19.00;99.90
42099;DHT22;27758;55.900;8.516;2023-09-30T09:07:35;19.00;99.90
42099;DHT22;27758;55.900;8.516;2023-09-30T09:12:35;18.80;99.90
42099;DHT22;27758;55.900;8.516;2023-09-30T09:15:01;18.40;99.90
42099;DHT22;27758;55.900;8.516;2023-09-30T09:17:41;18.10;99.90
42099;DHT22;27758;55.900;8.516;2023-09-30T09:20:12;17.80;99.90
42099;DHT22;27758;55.900;8.516;2023-09-30T09:22:45;17.70;99.90
42099;DHT22;27758;55.900;8.516;2023-09-30T09:25:11;17.70;99.90
42099;DHT22;27758;55.900;8.516;2023-09-30T09:27:37;17.70;99.90
42099;DHT22;27758;55.900;8.516;2023-09-30T09:30:23;17.80;99.90
42099;DHT22;27758;55.900;8.516;2023-09-30T09:32:54;18.30;99.90
42099;DHT22;27758;55.900;8.516;2023-09-30T09:35:21;18.60;99.90
42099;DHT22;27758;55.900;8.516;2023-09-30T09:38:06;18.90;99.90
42099;DHT22;27758;55.900;8.516;2023-09-30T09:40:37;19.00;99.90
42099;DHT22;27758;55.900;8.516;2023-09-30T09:43:06;19.20;99.90
42099;DHT22;27758;55.900;8.516;2023-09-30T09:45:37;19.30;99.90
42099;DHT22;27758;55.900;8.516;2023-09-30T09:48:06;19.40;99.90
42099;DHT22;27758;55.900;8.516;2023-09-30T09:50:32;19.50;99.90
42099;DHT22;27758;55.900;8.516;2023-09-30T09:52:58;19.50;99.90
42099;DHT22;27758;55.900;8.516;2023-09-30T09:55:26;19.70;99.90
42099;DHT22;27758;55.900;8.516;2023-09-30T09:57:53;19.90;99.90
42099;DHT22;27758;55.900;8.516;2023-09-30T10:00:22;20.20;99.90
42099;DHT22;27758;55.900;8.516;2023-09-30T10:02:49;20.40;99.90
42099;DHT22;27758;55.900;8.516;2023-09-30T10:05:17;20.80;99.90
42099;DHT22;27758;55.900;8.516;2023-09-30T10:08:05;21.00;99.90
42099;DHT22;27758;55.900;8.516;2023-09-30T10:10:36;20.90;99.90
42099;DHT22;27758;55.900;8.516;2023-09-30T10:13:05;20.80;99.90
42099;DHT22;27758;55.900;8.516;2023-09-30T10:15:35;21.00;99.90
42099;DHT22;27758;55.900;8.516;2023-09-30T10:18:11;21.20;99.90
42099;DHT22;27758;55.900;8.516;2023-09-30T10:20:42;21.00;99.90
42099;DHT22;27758;55.900;8.516;2023-09-30T10:23:28;21.00;99.90
42099;DHT22;27758;55.900;8.516;2023-09-30T10:28:42;21.10;99.90
42099;DHT22;27758;55.900;8.516;2023-09-30T10:31:21;21.40;99.90
42099;DHT22;27758;55.900;8.516;2023-09-30T10:36:34;21.10;99.90
42099;DHT22;27758;55.900;8.516;2023-09-30T10:39:00;20.90;99.90
42099;DHT22;27758;55.900;8.516;2023-09-30T10:46:54;20.90;99.90
42099;DHT22;27758;55.900;8.516;2023-09-30T10:51:56;21.30;99.90
42099;DHT22;27758;55.900;8.516;2023-09-30T10:54:24;21.10;99.90
42099;DHT22;27758;55.900;8.516;2023-09-30T10:56:49;21.00;99.90
42099;DHT22;27758;55.900;8.516;2023-09-30T10:59:41;21.20;99.90
42099;DHT22;27758;55.900;8.516;2023-09-30T11:02:19;20.80;99.90
42099;DHT22;27758;55.900;8.516;2023-09-30T11:04:46;20.30;99.90
42099;DHT22;27758;55.900;8.516;2023-09-30T11:07:19;20.40;99.90
42099;DHT22;27758;55.900;8.516;2023-09-30T11:09:47;20.40;99.90
42099;DHT22;27758;55.900;8.516;2023-09-30T11:12:14;20.50;99.90
42099;DHT22;27758;55.900;8.516;2023-09-30T11:14:40;20.00;99.90
42099;DHT22;27758;55.900;8.516;2023-09-30T11:17:06;19.60;99.90
42099;DHT22;27758;55.900;8.516;2023-09-30T11:19:36;19.60;99.90
42099;DHT22;27758;55.900;8.516;2023-09-30T11:22:05;19.40;99.90
42099;DHT22;27758;55.900;8.516;2023-09-30T11:24:35;19.40;99.90
42099;DHT22;27758;55.900;8.516;2023-09-30T11:27:01;19.50;99.90
42099;DHT22;27758;55.900;8.516;2023-09-30T11:29:27;19.60;99.90
42099;DHT22;27758;55.900;8.516;2023-09-30T11:31:53;19.50;99.90
42099;DHT22;27758;55.900;8.516;2023-09-30T11:34:19;19.50;99.90
42099;DHT22;27758;55.900;8.516;2023-09-30T11:36:52;19.60;99.90
42099;DHT22;27758;55.900;8.516;2023-09-30T11:39:36;19.90;99.90
42099;DHT22;27758;55.900;8.516;2023-09-30T11:42:01;20.10;99.90
42099;DHT22;27758;55.900;8.516;2023-09-30T11:44:44;20.10;99.90
42099;DHT22;27758;55.900;8.516;2023-09-30T11:47:13;20.20;99.90
42099;DHT22;27758;55.900;8.516;2023-09-30T11:49:41;20.00;99.90
42099;DHT22;27758;55.900;8.516;2023-09-30T11:52:13;19.70;99.90
42099;DHT22;27758;55.900;8.516;2023-09-30T11:54:44;19.40;99.90
42099;DHT22;27758;55.900;8.516;2023-09-30T11:57:17;19.10;99.90
42099;DHT22;27758;55.900;8.516;2023-09-30T11:59:47;19.10;99.90
42099;DHT22;27758;55.900;8.516;2023-09-30T12:02:14;19.10;99.90
42099;DHT22;27758;55.900;8.516;2023-09-30T12:04:44;19.20;99.90
42099;DHT22;27758;55.900;8.516;2023-09-30T12:07:11;19.40;99.90
42099;DHT22;27758;55.900;8.516;2023-09-30T12:09:37;19.20;99.90
42099;DHT22;27758;55.900;8.516;2023-09-30T12:12:03;19.20;99.90
42099;DHT22;27758;55.900;8.516;2023-09-30T12:14:29;19.50;99.90
42099;DHT22;27758;55.900;8.516;2023-09-30T12:16:56;19.80;99.90
42099;DHT22;27758;55.900;8.516;2023-09-30T12:19:22;20.10;99.90
42099;DHT22;27758;55.900;8.516;2023-09-30T12:21:48;20.30;99.90
42099;DHT22;27758;55.900;8.516;2023-09-30T12:24:16;20.30;99.90
42099;DHT22;27758;55.900;8.516;2023-09-30T12:26:46;20.20;99.90
42099;DHT22;27758;55.900;8.516;2023-09-30T12:29:19;20.10;99.90
42099;DHT22;27758;55.900;8.516;2023-09-30T12:31:45;20.00;99.90
42099;DHT22;27758;55.900;8.516;2023-09-30T12:34:12;19.80;99.90
42099;DHT22;27758;55.900;8.516;2023-09-30T12:36:38;19.50;99.90
42099;DHT22;27758;55.900;8.516;2023-09-30T12:39:04;19.30;99.90
42099;DHT22;27758;55.900;8.516;2023-09-30T12:41:45;19.10;99.90
42099;DHT22;27758;55.900;8.516;2023-09-30T12:44:11;18.90;99.90
42099;DHT22;27758;55.900;8.516;2023-09-30T12:46:37;18.70;99.90
42099;DHT22;27758;55.900;8.516;2023-09-30T12:49:05;18.50;99.90
42099;DHT22;27758;55.900;8.516;2023-09-30T12:51:31;18.30;99.90
42099;DHT22;27758;55.900;8.516;2023-09-30T12:53:57;18.10;99.90
42099;DHT22;27758;55.900;8.516;2023-09-30T12:56:23;18.10;99.90
42099;DHT22;27758;55.900;8.516;2023-09-30T12:58:49;18.00;99.90
42099;DHT22;27758;55.900;8.516;2023-09-30T13:01:15;17.70;99.90
42099;DHT22;27758;55.900;8.516;2023-09-30T13:03:44;17.70;99.90
42099;DHT22;27758;55.900;8.516;2023-09-30T13:06:10;17.70;99.90
42099;DHT22;27758;55.900;8.516;2023-09-30T13:08:35;17.70;99.90
42099;DHT22;27758;55.900;8.516;2023-09-30T13:11:04;17.70;99.90
42099;DHT22;27758;55.900;8.516;2023-09-30T13:13:32;17.80;99.90
42099;DHT22;27758;55.900;8.516;2023-09-30T13:16:03;17.90;99.90
42099;DHT22;27758;55.900;8.516;2023-09-30T13:18:31;17.90;99.90
42099;DHT22;27758;55.900;8.516;2023-09-30T13:23:34;18.00;99.90
42099;DHT22;27758;55.900;8.516;2023-09-30T13:26:00;18.10;99.90
42099;DHT22;27758;55.900;8.516;2023-09-30T13:28:26;18.20;99.90
42099;DHT22;27758;55.900;8.516;2023-09-30T13:30:53;18.10;99.90
42099;DHT22;27758;55.900;8.516;2023-09-30T13:46:16;17.70;99.90
42099;DHT22;27758;55.900;8.516;2023-09-30T13:48:42;17.90;99.90
42099;DHT22;27758;55.900;8.516;2023-09-30T13:51:11;18.10;99.90
42099;DHT22;27758;55.900;8.516;2023-09-30T13:53:37;18.10;99.90
